Time;durP1;ratioP1;P1;durP2;ratioP2;P2;SDS_P1;SDS_P2;PMS_P1;PMS_P2;Temp;Humidity;BMP_temperature;BMP_pressure;BME280_temperature;BME280_humidity;BME280_pressure;Samples;Min_cycle;Max_cycle;Signal;HPM_P1;HPM_P2
2021/01/04 00:01:45;;;;;;;285.40;106.70;;;;;;;1.46;91.67;100471.11;1770392;79;21258;-76
2021/01/04 00:04:39;;;;;;;299.67;112.97;;;;;;;1.49;91.69;100477.92;1798257;78;21183;-77
2021/01/04 00:07:26;;;;;;;275.87;107.58;;;;;;;1.48;91.69;100469.20;1760340;79;21167;-76
2021/01/04 00:10:30;;;;;;;255.45;110.15;;;;;;;1.50;91.69;100468.63;1763486;81;21688;-76
2021/01/04 00:13:29;;;;;;;256.68;108.32;;;;;;;1.46;91.71;100465.86;1764058;81;21696;-75
2021/01/04 00:16:13;;;;;;;272.02;114.75;;;;;;;1.46;91.71;100465.86;1703182;82;21758;-76
2021/01/04 00:19:13;;;;;;;357.83;162.18;;;;;;;1.50;91.74;100467.32;1809797;78;22418;-77
2021/01/04 00:21:54;;;;;;;286.57;113.05;;;;;;;1.47;91.72;100464.92;1790185;79;21152;-77
2021/01/04 00:24:44;;;;;;;234.90;92.82;;;;;;;1.50;91.73;100463.38;1770898;79;22009;-76
2021/01/04 00:27:23;;;;;;;;;;;;;;;1.51;91.74;100457.15;1758076;81;21589;-77
2021/01/04 00:29:53;;;;;;;247.40;98.33;;;;;;;1.53;91.76;100461.47;1756599;81;20282;-76
2021/01/04 00:32:23;;;;;;;250.97;94.60;;;;;;;1.49;91.78;100456.44;1756972;80;21174;-76
2021/01/04 00:34:52;;;;;;;;;;;;;;;1.49;91.78;100460.37;1758736;81;21180;-76
2021/01/04 00:37:47;;;;;;;343.63;143.22;;;;;;;1.52;91.78;100459.30;1755678;81;22217;-77
2021/01/04 00:40:51;;;;;;;227.30;85.70;;;;;;;1.54;91.78;100461.84;1754224;81;21219;-76
2021/01/04 00:43:28;;;;;;;234.10;85.05;;;;;;;1.54;91.80;100463.16;1755702;81;21834;-76
2021/01/04 00:45:55;;;;;;;245.65;95.17;;;;;;;1.50;91.80;100459.44;1758136;79;21151;-77
2021/01/04 00:48:41;;;;;;;242.13;93.45;;;;;;;1.50;91.82;100467.32;1756129;81;21174;-76
2021/01/04 00:51:31;;;;;;;253.07;93.65;;;;;;;1.49;91.84;100466.95;1756134;81;22163;-76
2021/01/04 00:53:57;;;;;;;;;;;;;;;1.46;91.84;100466.33;1758310;81;21153;-76
2021/01/04 00:56:43;;;;;;;249.60;92.37;;;;;;;1.45;91.82;100468.58;1755995;81;20253;-76
2021/01/04 00:59:44;;;;;;;234.00;89.72;;;;;;;1.46;91.84;100466.33;1736934;81;21203;-76
2021/01/04 01:02:47;;;;;;;250.03;94.90;;;;;;;1.45;91.83;100463.33;1750121;81;21184;-76
2021/01/04 01:05:22;;;;;;;244.28;92.60;;;;;;;1.46;91.82;100465.86;1785843;80;21288;-76
2021/01/04 01:08:18;;;;;;;241.95;93.75;;;;;;;1.48;91.82;100469.20;1784739;80;21196;-76
2021/01/04 01:10:49;;;;;;;226.18;89.17;;;;;;;1.47;91.83;100466.23;1762178;80;21201;-75
2021/01/04 01:13:45;;;;;;;258.77;100.02;;;;;;;1.50;91.86;100464.69;1786511;79;22702;-75
2021/01/04 01:16:35;;;;;;;243.12;97.65;;;;;;;1.43;91.85;100466.08;1737340;79;21163;-76
2021/01/04 01:19:29;;;;;;;255.25;101.80;;;;;;;1.44;91.85;100460.36;1796057;79;21190;-76
2021/01/04 01:21:57;;;;;;;237.08;93.20;;;;;;;1.43;91.85;100459.52;1762423;79;21159;-77
2021/01/04 01:24:25;;;;;;;254.03;94.87;;;;;;;1.42;91.89;100459.14;1784555;79;21096;-77
2021/01/04 01:27:08;;;;;;;249.47;95.50;;;;;;;1.42;91.86;100451.26;1783596;79;21136;-77
2021/01/04 01:30:15;;;;;;;243.82;92.02;;;;;;;1.43;91.89;100452.95;1783262;79;21603;-77
2021/01/04 01:33:00;;;;;;;240.75;94.32;;;;;;;1.44;91.89;100450.66;1739143;79;21219;-77
2021/01/04 01:36:10;;;;;;;231.32;89.00;;;;;;;1.42;91.90;100460.45;1783989;79;21645;-77
2021/01/04 01:38:48;;;;;;;237.38;88.85;;;;;;;1.41;91.90;100457.92;1743056;81;21188;-77
2021/01/04 01:41:47;;;;;;;243.12;94.10;;;;;;;1.41;91.90;100459.23;1765347;80;21160;-77
2021/01/04 01:44:56;;;;;;;236.40;91.87;;;;;;;1.42;91.90;100463.08;1757530;80;21144;-77
2021/01/04 01:47:53;;;;;;;235.78;95.30;;;;;;;1.42;91.90;100462.23;1758188;80;21289;-77
2021/01/04 01:50:40;;;;;;;240.40;90.85;;;;;;;1.42;91.91;100466.18;1774295;80;21187;-77
2021/01/04 01:53:26;;;;;;;242.77;91.82;;;;;;;1.42;91.92;100474.06;1785620;80;21573;-77
2021/01/04 01:56:21;;;;;;;258.17;101.30;;;;;;;1.41;91.94;100473.22;1774546;80;21246;-77
2021/01/04 01:59:08;;;;;;;253.18;93.05;;;;;;;1.41;91.92;100476.31;1756554;81;21161;-77
2021/01/04 02:02:04;;;;;;;257.43;99.25;;;;;;;1.44;91.92;100476.94;1766165;80;21641;-77
2021/01/04 02:05:13;;;;;;;250.43;91.40;;;;;;;1.42;91.95;100476.22;1756239;81;21191;-76
2021/01/04 02:08:03;;;;;;;261.57;95.60;;;;;;;1.42;91.95;100479.31;1755607;81;21199;-77
2021/01/04 02:10:42;;;;;;;247.10;93.20;;;;;;;1.42;91.96;100475.38;1755519;81;21695;-77
2021/01/04 02:13:25;;;;;;;236.80;88.05;;;;;;;1.42;91.96;100481.47;1743875;81;21180;-77
2021/01/04 02:15:59;;;;;;;254.23;95.45;;;;;;;1.45;91.96;100473.84;1738772;82;21263;-77
2021/01/04 02:18:50;;;;;;;243.50;93.35;;;;;;;1.43;91.97;100475.75;1747359;81;21196;-77
2021/01/04 02:21:42;;;;;;;256.63;97.25;;;;;;;1.44;91.96;100480.87;1760246;81;21155;-77
2021/01/04 02:24:18;;;;;;;260.88;103.58;;;;;;;1.44;91.98;100478.25;1758549;80;21625;-77
2021/01/04 02:27:06;;;;;;;257.37;104.38;;;;;;;1.45;92.00;100481.25;1759219;80;21223;-77
2021/01/04 02:29:32;;;;;;;247.58;94.67;;;;;;;1.48;92.00;100474.92;1759742;81;21242;-77
2021/01/04 02:32:01;;;;;;;281.70;109.57;;;;;;;1.51;92.00;100474.23;1759318;81;21180;-77
2021/01/04 02:34:34;;;;;;;387.77;131.25;;;;;;;1.51;92.02;100475.55;1740622;81;21192;-77
2021/01/04 02:37:00;;;;;;;415.23;136.95;;;;;;;1.50;92.03;100469.95;1742873;81;21215;-77
2021/01/04 02:39:38;;;;;;;383.35;127.22;;;;;;;1.48;92.02;100470.52;1755672;81;21632;-77
2021/01/04 02:42:17;;;;;;;396.90;138.57;;;;;;;1.49;92.03;100468.26;1763138;81;21758;-77
2021/01/04 02:44:44;;;;;;;409.65;141.03;;;;;;;1.50;92.03;100471.27;1758343;81;21728;-77
2021/01/04 02:47:45;;;;;;;411.15;136.95;;;;;;;1.54;92.04;100472.34;1744599;81;22268;-77
2021/01/04 02:50:52;;;;;;;427.05;134.90;;;;;;;1.51;92.04;100468.97;1759635;80;21143;-77
2021/01/04 02:53:40;;;;;;;412.85;128.30;;;;;;;1.49;92.05;100469.58;1759081;80;21155;-77
2021/01/04 02:56:19;;;;;;;417.57;142.37;;;;;;;1.46;92.04;100463.23;1759644;80;21201;-77
2021/01/04 02:59:16;;;;;;;416.32;138.82;;;;;;;1.47;92.03;100470.64;1759216;81;21955;-77
2021/01/04 03:01:56;;;;;;;408.50;136.62;;;;;;;1.50;92.04;100469.95;1759509;81;21155;-76
2021/01/04 03:04:24;;;;;;;395.05;128.30;;;;;;;1.53;92.06;100470.66;1749150;81;21589;-76
2021/01/04 03:07:14;;;;;;;394.37;149.68;;;;;;;1.50;92.07;100469.95;1740788;81;21192;-77
2021/01/04 03:09:46;;;;;;;357.37;117.15;;;;;;;1.50;92.08;100469.95;1759489;80;21215;-77
2021/01/04 03:12:22;;;;;;;386.60;128.85;;;;;;;1.48;92.09;100468.36;1774966;80;21160;-77
2021/01/04 03:15:14;;;;;;;383.93;128.50;;;;;;;1.48;92.08;100461.31;1782357;80;21655;-77
2021/01/04 03:18:20;;;;;;;376.92;134.97;;;;;;;1.54;92.10;100461.84;1786049;80;21172;-77
2021/01/04 03:20:46;;;;;;;275.38;104.75;;;;;;;1.51;92.10;100465.53;1763933;81;21163;-77
2021/01/04 03:23:12;;;;;;;289.12;100.38;;;;;;;1.49;92.12;100468.26;1763825;81;21597;-77
2021/01/04 03:26:06;;;;;;;275.15;95.72;;;;;;;1.46;92.12;100468.48;1763894;81;21737;-77
2021/01/04 03:28:45;;;;;;;232.03;100.53;;;;;;;1.50;92.13;100469.95;1819332;77;27904;-77
2021/01/04 03:31:11;;;;;;;333.25;128.80;;;;;;;1.50;92.11;100472.58;1794333;78;21138;-77
2021/01/04 03:33:38;;;;;;;260.17;98.72;;;;;;;1.53;92.14;100483.80;1793461;80;22073;-78
2021/01/04 03:36:05;;;;;;;278.15;107.67;;;;;;;1.49;92.15;100474.83;1794010;80;21068;-78
2021/01/04 03:38:32;;;;;;;264.70;100.92;;;;;;;1.51;92.13;100478.67;1793942;80;21147;-77
2021/01/04 03:41:02;;;;;;;299.65;113.22;;;;;;;1.52;92.14;100480.33;1805886;78;21211;-77
2021/01/04 03:43:28;;;;;;;349.12;110.12;;;;;;;1.51;92.15;100477.36;1826613;78;21107;-77
2021/01/04 03:45:55;;;;;;;348.70;122.05;;;;;;;1.50;92.16;100480.92;1826084;78;21244;-77
2021/01/04 03:48:22;;;;;;;291.73;110.97;;;;;;;1.46;92.15;100481.63;1826612;78;21142;-77
2021/01/04 03:50:50;;;;;;;275.87;103.53;;;;;;;1.45;92.17;100485.66;1826213;78;21574;-77
2021/01/04 03:53:16;;;;;;;265.07;103.47;;;;;;;1.44;92.17;100484.81;1796728;78;21158;-77
2021/01/04 03:55:43;;;;;;;277.13;105.30;;;;;;;1.41;92.18;100486.83;1826534;78;21134;-77
2021/01/04 03:58:11;;;;;;;266.82;98.55;;;;;;;1.41;92.20;100486.35;1826421;78;21182;-77
2021/01/04 04:00:37;;;;;;;252.38;92.25;;;;;;;1.44;92.19;100482.69;1826354;78;21178;-77
2021/01/04 04:03:04;;;;;;;263.43;97.00;;;;;;;1.45;92.20;100487.81;1826610;78;21138;-77
2021/01/04 04:05:31;;;;;;;247.27;93.82;;;;;;;1.44;92.22;100494.02;1824946;78;21600;-77
2021/01/04 04:08:00;;;;;;;263.07;103.27;;;;;;;1.43;92.23;100494.14;1824072;78;21620;-77
2021/01/04 04:10:26;;;;;;;258.27;97.88;;;;;;;1.46;92.23;100493.45;1824959;78;22233;-76
2021/01/04 04:12:52;;;;;;;282.30;101.47;;;;;;;1.43;92.22;100492.36;1815588;78;21123;-77
2021/01/04 04:15:19;;;;;;;261.68;93.72;;;;;;;1.39;92.23;100497.46;1793368;79;21453;-77
2021/01/04 04:17:46;;;;;;;269.65;96.05;;;;;;;1.35;92.22;100498.63;1802215;78;21122;-77
2021/01/04 04:20:17;;;;;;;257.50;95.62;;;;;;;1.36;92.24;100499.00;1825939;77;21151;-77
2021/01/04 04:22:46;;;;;;;240.57;87.85;;;;;;;1.35;92.25;100499.94;1814737;78;21126;-77
2021/01/04 04:25:13;;;;;;;238.27;90.97;;;;;;;1.33;92.24;100493.12;1766269;80;21575;-77
2021/01/04 04:27:39;;;;;;;268.88;96.80;;;;;;;1.33;92.24;100493.97;1793965;79;21139;-77
2021/01/04 04:30:08;;;;;;;236.70;89.05;;;;;;;1.33;92.25;100493.97;1793895;80;21599;-77
2021/01/04 04:32:35;;;;;;;250.55;92.05;;;;;;;1.35;92.28;100496.47;1794158;80;21675;-77
2021/01/04 04:35:04;;;;;;;244.93;92.33;;;;;;;1.34;92.28;100490.84;1793976;79;21266;-76
2021/01/04 04:37:30;;;;;;;235.00;87.92;;;;;;;1.32;92.29;100489.66;1793510;80;21187;-77
2021/01/04 04:39:57;;;;;;;261.40;94.77;;;;;;;1.32;92.32;100489.66;1793405;80;21147;-77
2021/01/04 04:42:23;;;;;;;245.20;89.45;;;;;;;1.29;92.31;100491.19;1793378;78;21166;-77
2021/01/04 04:45:04;;;;;;;252.70;97.12;;;;;;;1.28;92.32;100492.13;1786155;80;21711;-77
2021/01/04 04:47:56;;;;;;;246.15;83.85;;;;;;;1.27;92.32;100497.00;1761423;80;21226;-77
2021/01/04 04:50:55;;;;;;;228.40;86.82;;;;;;;1.28;92.32;100499.16;1762125;81;21150;-77
2021/01/04 04:54:10;;;;;;;241.42;84.00;;;;;;;1.27;92.32;100500.94;1761902;80;21180;-77
2021/01/04 04:57:06;;;;;;;241.80;84.97;;;;;;;1.27;92.33;100503.57;1707731;84;21221;-77
2021/01/04 04:59:46;;;;;;;230.52;86.63;;;;;;;1.28;92.33;100501.78;1727564;83;21223;-77
2021/01/04 05:02:24;;;;;;;254.23;86.10;;;;;;;1.28;92.34;100496.06;1714704;83;22262;-77
2021/01/04 05:05:27;;;;;;;225.65;83.35;;;;;;;1.30;92.34;100490.22;1730323;82;21155;-77
2021/01/04 05:08:37;;;;;;;255.75;95.85;;;;;;;1.29;92.36;100494.28;1727584;82;21149;-77
2021/01/04 05:11:03;;;;;;;258.80;94.10;;;;;;;1.27;92.36;100500.94;1709839;82;21212;-77
2021/01/04 05:13:39;;;;;;;248.85;97.80;;;;;;;1.30;92.37;100502.03;1737196;82;21133;-77
2021/01/04 05:16:16;;;;;;;233.60;87.37;;;;;;;1.32;92.38;100509.35;1737095;82;22180;-77
2021/01/04 05:19:11;;;;;;;266.50;97.20;;;;;;;1.32;92.38;100508.04;1736211;82;21202;-77
2021/01/04 05:21:55;;;;;;;279.60;101.07;;;;;;;1.29;92.38;100510.05;1713054;82;21204;-77
2021/01/04 05:24:38;;;;;;;257.15;93.37;;;;;;;1.27;92.40;100507.52;1707644;84;21678;-77
2021/01/04 05:27:32;;;;;;;279.43;99.00;;;;;;;1.30;92.40;100508.60;1675556;82;21155;-77
2021/01/04 05:30:33;;;;;;;262.30;99.37;;;;;;;1.27;92.40;100510.13;1761722;80;22074;-77
2021/01/04 05:33:28;;;;;;;246.22;84.83;;;;;;;1.31;92.40;100512.92;1729105;83;21149;-77
2021/01/04 05:36:00;;;;;;;252.78;88.07;;;;;;;1.28;92.43;100510.51;1729021;83;21154;-77
2021/01/04 05:38:50;;;;;;;246.10;90.55;;;;;;;1.25;92.43;100512.52;1710408;83;21240;-77
2021/01/04 05:41:48;;;;;;;241.53;91.08;;;;;;;1.26;92.42;100508.48;1728787;82;21140;-77
2021/01/04 05:45:00;;;;;;;251.12;85.62;;;;;;;1.24;92.43;100510.36;1729060;82;21266;-77
2021/01/04 05:47:38;;;;;;;247.70;82.62;;;;;;;1.23;92.44;100501.29;1729008;82;21160;-77
2021/01/04 05:50:44;;;;;;;246.65;89.95;;;;;;;1.27;92.47;100498.31;1815216;77;23345;-78
2021/01/04 05:53:10;;;;;;;260.55;90.97;;;;;;;1.21;92.45;100507.95;1787437;79;21155;-78
2021/01/04 05:55:36;;;;;;;245.78;87.90;;;;;;;1.23;92.45;100508.67;1785447;80;21228;-78
2021/01/04 05:58:18;;;;;;;232.18;74.22;;;;;;;1.23;92.46;100511.30;1787539;80;21573;-78
2021/01/04 06:00:44;;;;;;;258.05;90.03;;;;;;;1.23;92.47;100508.67;1785508;79;21132;-78
2021/01/04 06:06:02;;;;;;;190.28;86.05;;;;;;;1.28;92.49;100514.45;1795393;78;27950;-75
2021/01/04 06:08:29;;;;;;;229.32;84.58;;;;;;;1.29;92.47;100504.79;1796178;79;21584;-76
2021/01/04 06:11:10;;;;;;;241.25;87.27;;;;;;;1.30;92.50;100504.66;1796999;79;21635;-77
2021/01/04 06:13:45;;;;;;;226.32;86.50;;;;;;;1.31;92.51;100512.92;1763887;79;21222;-77
2021/01/04 06:16:14;;;;;;;224.32;79.20;;;;;;;1.29;92.51;100510.89;1763727;79;21202;-77
2021/01/04 06:18:51;;;;;;;231.30;79.15;;;;;;;1.28;92.51;100509.67;1797063;79;21128;-77
2021/01/04 06:21:42;;;;;;;253.73;85.50;;;;;;;1.27;92.51;100510.13;1796975;79;21600;-77
2021/01/04 06:24:09;;;;;;;251.55;87.80;;;;;;;1.24;92.51;100512.14;1767257;79;22071;-78
2021/01/04 06:26:35;;;;;;;240.80;81.25;;;;;;;1.22;92.52;100512.27;1727699;81;21224;-77
2021/01/04 06:29:05;;;;;;;234.83;83.58;;;;;;;1.22;92.51;100523.24;1757520;81;21132;-78
2021/01/04 06:31:40;;;;;;;229.15;84.35;;;;;;;1.24;92.53;100531.37;1757706;81;21557;-78
2021/01/04 06:34:26;;;;;;;205.92;75.85;;;;;;;1.24;92.54;100529.21;1757462;81;21227;-78
2021/01/04 06:36:59;;;;;;;243.00;93.35;;;;;;;1.23;92.53;100542.81;1757349;81;21159;-78
2021/01/04 06:39:31;;;;;;;235.15;83.90;;;;;;;1.23;92.56;100532.31;1757451;81;21235;-78
2021/01/04 06:42:20;;;;;;;237.30;88.90;;;;;;;1.24;92.55;100544.50;1757403;80;21180;-78
2021/01/04 06:45:03;;;;;;;231.47;80.15;;;;;;;1.22;92.53;100543.78;1757531;81;21616;-78
2021/01/04 06:47:59;;;;;;;211.60;81.87;;;;;;;1.21;92.55;100536.84;1757450;81;21149;-78
2021/01/04 06:50:31;;;;;;;236.15;89.55;;;;;;;1.22;92.55;100539.84;1669865;85;21217;-78
2021/01/04 06:53:44;;;;;;;221.65;79.60;;;;;;;1.23;92.54;100542.00;1677158;85;21197;-78
2021/01/04 06:56:56;;;;;;;241.10;88.30;;;;;;;1.24;92.55;100539.25;1677077;85;21638;-78
2021/01/04 06:59:49;;;;;;;302.77;109.22;;;;;;;1.27;92.56;100553.95;1648163;85;21212;-78
2021/01/04 07:03:05;;;;;;;250.47;85.47;;;;;;;1.35;92.57;100548.53;1852213;77;22708;-77
2021/01/04 07:06:00;;;;;;;272.58;99.92;;;;;;;1.29;92.57;100552.91;1824374;78;21182;-77
2021/01/04 07:08:54;;;;;;;285.98;98.03;;;;;;;1.29;92.57;100560.80;1763979;78;21273;-77
2021/01/04 07:11:44;;;;;;;273.25;100.18;;;;;;;1.27;92.56;100561.36;1824157;78;21021;-78
2021/01/04 07:14:33;;;;;;;245.52;89.52;;;;;;;1.28;92.56;100569.61;1824473;78;21167;-77
2021/01/04 07:17:20;;;;;;;262.40;87.60;;;;;;;1.30;92.55;100561.14;1737945;78;21136;-77
2021/01/04 07:20:23;;;;;;;263.45;87.08;;;;;;;1.29;92.55;100563.42;1787487;78;21147;-77
2021/01/04 07:23:03;;;;;;;275.82;92.42;;;;;;;1.29;92.56;100562.58;1812736;78;21233;-77
2021/01/04 07:25:35;;;;;;;270.93;89.87;;;;;;;1.30;92.58;100568.20;1791408;80;21190;-77
2021/01/04 07:28:35;;;;;;;262.80;88.37;;;;;;;1.30;92.56;100568.20;1790571;79;21577;-77
2021/01/04 07:31:21;;;;;;;267.85;102.78;;;;;;;1.30;92.60;100566.39;1792024;80;21151;-77
2021/01/04 07:34:05;;;;;;;255.87;90.42;;;;;;;1.31;92.57;100574.66;1744861;80;21119;-78
2021/01/04 07:36:43;;;;;;;238.35;86.82;;;;;;;1.31;92.56;100573.34;1791675;80;21256;-78
2021/01/04 07:39:48;;;;;;;249.92;87.12;;;;;;;1.30;92.58;100573.46;1781488;80;21179;-77
2021/01/04 07:42:29;;;;;;;232.12;83.05;;;;;;;1.29;92.57;100575.24;1787080;80;21624;-77
2021/01/04 07:45:41;;;;;;;219.15;72.03;;;;;;;1.30;92.60;100580.84;1783551;80;21164;-77
2021/01/04 07:49:03;;;;;;;237.50;84.32;;;;;;;1.27;92.58;100581.06;1791782;80;21179;-77
2021/01/04 07:51:49;;;;;;;218.45;78.25;;;;;;;1.28;92.59;100582.75;1760480;81;21203;-78
2021/01/04 07:54:39;;;;;;;212.23;81.10;;;;;;;1.26;92.57;100581.19;1760014;81;21226;-78
2021/01/04 07:57:21;;;;;;;;;;;;;;;1.29;92.58;100581.81;1779830;80;21214;-78
2021/01/04 08:00:11;;;;;;;220.20;78.40;;;;;;;1.32;92.59;100584.22;1784438;80;20280;-78
2021/01/04 08:03:15;;;;;;;213.68;75.72;;;;;;;1.29;92.59;100588.38;1761496;80;21165;-78
2021/01/04 08:06:04;;;;;;;212.23;75.28;;;;;;;1.30;92.59;100586.09;1736723;81;21310;-78
2021/01/04 08:08:57;;;;;;;200.43;73.12;;;;;;;1.29;92.60;100594.09;1759863;81;21174;-78
2021/01/04 08:12:01;;;;;;;190.20;69.27;;;;;;;1.29;92.59;100580.97;1759953;80;21155;-78
2021/01/04 08:14:42;;;;;;;206.07;73.10;;;;;;;1.28;92.59;100581.44;1757896;81;21174;-78
2021/01/04 08:17:19;;;;;;;195.70;74.65;;;;;;;1.27;92.58;100581.06;1731146;81;21153;-78
2021/01/04 08:19:45;;;;;;;205.20;76.45;;;;;;;1.30;92.60;100578.22;1732006;80;22114;-77
2021/01/04 08:22:40;;;;;;;215.05;82.70;;;;;;;1.30;92.60;100588.72;1759129;81;21654;-78
2021/01/04 08:25:11;;;;;;;215.55;78.45;;;;;;;1.28;92.61;100591.94;1758809;81;21130;-78
2021/01/04 08:27:59;;;;;;;207.62;77.05;;;;;;;1.27;92.61;100602.08;1758770;81;21156;-77
2021/01/04 08:30:31;;;;;;;202.87;72.27;;;;;;;1.26;92.59;100600.42;1757968;81;21131;-78
2021/01/04 08:33:37;;;;;;;212.78;77.95;;;;;;;1.26;92.59;100600.42;1719135;81;21155;-77
2021/01/04 08:36:05;;;;;;;394.32;144.28;;;;;;;1.29;92.60;100601.52;1742885;81;21659;-78
2021/01/04 08:38:36;;;;;;;696.33;300.65;;;;;;;1.31;92.61;100613.20;1718367;81;21128;-78
2021/01/04 08:41:23;;;;;;;258.70;96.30;;;;;;;1.28;92.61;100627.41;1733527;81;21098;-78
2021/01/04 08:43:51;;;;;;;213.43;74.80;;;;;;;1.28;92.62;100621.30;1754079;81;21550;-78
2021/01/04 08:46:23;;;;;;;217.50;72.75;;;;;;;1.28;92.61;100607.70;1759157;81;21202;-78
2021/01/04 08:48:52;;;;;;;228.18;80.47;;;;;;;1.26;92.62;100599.57;1757860;80;21194;-77
2021/01/04 08:51:35;;;;;;;232.72;80.97;;;;;;;1.32;92.62;100597.83;1759202;81;21560;-77
2021/01/04 08:54:24;;;;;;;228.58;76.10;;;;;;;1.35;92.61;100603.70;1758330;81;21600;-78
2021/01/04 08:57:18;;;;;;;251.75;82.00;;;;;;;1.36;92.62;100605.39;1753876;81;21552;-78
2021/01/04 09:00:01;;;;;;;274.00;96.47;;;;;;;1.35;92.62;100612.05;1723137;81;21279;-78
2021/01/04 09:02:38;;;;;;;249.85;81.63;;;;;;;1.33;92.66;100615.28;1726975;81;21214;-78
2021/01/04 09:05:08;;;;;;;248.18;73.57;;;;;;;1.33;92.64;100624.00;1783030;80;21554;-78
2021/01/04 09:07:34;;;;;;;264.38;82.25;;;;;;;1.31;92.65;100619.31;1763069;80;21157;-78
2021/01/04 09:10:25;;;;;;;245.63;79.90;;;;;;;1.30;92.65;100604.48;1758720;79;21099;-78
2021/01/04 09:12:52;;;;;;;250.18;93.70;;;;;;;1.33;92.65;100609.55;1809072;79;21175;-78
2021/01/04 09:15:27;;;;;;;249.47;87.00;;;;;;;1.32;92.65;100607.86;1800531;79;21131;-78
2021/01/04 09:18:05;;;;;;;257.12;74.47;;;;;;;1.31;92.66;100605.33;1791239;80;21135;-79
2021/01/04 09:21:02;;;;;;;231.78;76.90;;;;;;;1.31;92.66;100611.89;1791319;80;21171;-79
2021/01/04 09:23:38;;;;;;;251.98;88.60;;;;;;;1.26;92.65;100616.17;1791521;78;21577;-78
2021/01/04 09:26:18;;;;;;;249.07;79.35;;;;;;;1.26;92.66;100624.05;1791378;80;21545;-79
2021/01/04 09:28:50;;;;;;;250.87;85.90;;;;;;;1.28;92.66;100623.94;1790252;79;21155;-78
2021/01/04 09:31:18;;;;;;;242.50;73.62;;;;;;;1.25;92.68;100622.83;1788571;79;21107;-78
2021/01/04 09:33:50;;;;;;;213.37;67.97;;;;;;;1.20;92.68;100628.86;1791545;80;21076;-79
2021/01/04 09:36:19;;;;;;;213.35;69.67;;;;;;;1.15;92.68;100629.66;1791659;80;21182;-79
2021/01/04 09:38:45;;;;;;;260.30;81.10;;;;;;;1.11;92.69;100627.72;1791470;80;21163;-78
2021/01/04 09:41:12;;;;;;;226.12;80.03;;;;;;;1.11;92.69;100626.41;1760719;80;21167;-78
2021/01/04 09:43:39;;;;;;;231.38;74.82;;;;;;;1.15;92.69;100625.26;1791401;80;21127;-78
2021/01/04 09:46:29;;;;;;;223.45;76.65;;;;;;;1.16;92.69;100620.34;1791500;80;21191;-78
2021/01/04 09:49:09;;;;;;;257.62;91.57;;;;;;;1.16;92.69;100630.86;1791083;79;21151;-79
2021/01/04 09:51:40;;;;;;;235.38;84.07;;;;;;;1.17;92.71;100622.51;1788019;80;21286;-78
2021/01/04 09:54:08;;;;;;;265.62;86.87;;;;;;;1.21;92.72;100625.30;1791550;80;21182;-79
2021/01/04 09:56:36;;;;;;;230.55;73.80;;;;;;;1.21;92.72;100634.02;1791438;80;21131;-78
2021/01/04 09:59:11;;;;;;;271.70;90.75;;;;;;;1.22;92.74;100633.09;1791571;80;21139;-78
2021/01/04 10:01:51;;;;;;;224.05;74.50;;;;;;;1.21;92.72;100637.12;1782395;80;21150;-78
2021/01/04 10:04:33;;;;;;;237.70;77.72;;;;;;;1.22;92.74;100638.81;1759722;80;21523;-78
2021/01/04 10:07:04;;;;;;;269.18;87.70;;;;;;;1.25;92.74;100637.28;1759648;80;21077;-79
2021/01/04 10:09:32;;;;;;;230.55;78.42;;;;;;;1.21;92.74;100640.59;1759557;81;21167;-78
2021/01/04 10:12:02;;;;;;;267.37;84.00;;;;;;;1.20;92.73;100636.74;1731858;81;21167;-79
2021/01/04 10:14:28;;;;;;;;;;;;;;;1.19;92.75;100639.87;1762219;81;21537;-78
2021/01/04 10:16:56;;;;;;;226.25;75.12;;;;;;;1.19;92.75;100641.18;1759841;81;21258;-78
2021/01/04 10:19:45;;;;;;;225.20;73.45;;;;;;;1.18;92.78;100631.61;1759641;81;21221;-78
2021/01/04 10:22:16;;;;;;;261.45;86.57;;;;;;;1.17;92.77;100632.55;1759660;81;21095;-78
2021/01/04 10:24:50;;;;;;;216.02;71.22;;;;;;;1.18;92.77;100634.23;1759680;80;21195;-78
2021/01/04 10:27:18;;;;;;;219.65;70.35;;;;;;;1.19;92.78;100630.67;1755955;81;21115;-78
2021/01/04 10:29:53;;;;;;;235.75;74.03;;;;;;;1.19;92.78;100628.05;1759459;80;21251;-78
2021/01/04 10:32:25;;;;;;;219.32;67.53;;;;;;;1.20;92.80;100632.33;1759402;81;21600;-78
2021/01/04 10:34:51;;;;;;;242.90;72.40;;;;;;;1.20;92.82;100629.70;1759359;81;21115;-78
2021/01/04 10:37:43;;;;;;;229.47;73.15;;;;;;;1.20;92.80;100636.27;1759582;81;21127;-78
2021/01/04 10:40:13;;;;;;;236.85;80.67;;;;;;;1.16;92.82;100629.54;1759504;80;21143;-78
2021/01/04 10:42:41;;;;;;;248.60;82.25;;;;;;;1.16;92.82;100630.86;1759454;80;21269;-78
2021/01/04 10:45:18;;;;;;;253.15;79.10;;;;;;;1.17;92.83;100627.30;1759510;81;21130;-78
2021/01/04 10:47:55;;;;;;;249.02;77.00;;;;;;;1.18;92.81;100628.14;1759495;80;21091;-78
2021/01/04 10:50:37;;;;;;;196.00;72.55;;;;;;;1.21;92.83;100620.89;1759728;81;21151;-77
2021/01/04 10:53:07;;;;;;;206.28;70.62;;;;;;;1.23;92.84;100622.92;1759673;81;21143;-78
2021/01/04 10:55:38;;;;;;;220.35;77.58;;;;;;;1.25;92.85;100616.27;1758965;81;21270;-78
2021/01/04 10:58:14;;;;;;;187.22;65.12;;;;;;;1.22;92.83;100619.95;1759569;81;21126;-78
2021/01/04 11:00:57;;;;;;;203.95;70.97;;;;;;;1.25;92.83;100618.42;1758740;81;21198;-78
2021/01/04 11:03:24;;;;;;;164.60;64.15;;;;;;;1.29;92.84;100617.27;1787599;79;21060;-78
2021/01/04 11:05:50;;;;;;;190.18;68.40;;;;;;;1.28;92.84;100622.16;1791311;80;21139;-78
2021/01/04 11:08:32;;;;;;;188.40;66.28;;;;;;;1.25;92.84;100619.73;1791483;80;21295;-78
2021/01/04 11:11:07;;;;;;;181.87;64.58;;;;;;;1.27;92.87;100620.46;1791488;80;21159;-78
2021/01/04 11:13:34;;;;;;;206.02;80.30;;;;;;;1.30;92.85;100622.88;1791393;80;21094;-78
2021/01/04 11:16:12;;;;;;;187.18;65.37;;;;;;;1.33;92.87;100625.31;1791666;80;21202;-78
2021/01/04 11:18:50;;;;;;;188.60;69.72;;;;;;;1.30;92.89;100622.88;1791117;80;21156;-78
2021/01/04 11:21:17;;;;;;;168.05;64.03;;;;;;;1.29;92.87;100618.59;1791486;80;21867;-78
2021/01/04 11:23:43;;;;;;;182.15;67.85;;;;;;;1.28;92.88;100608.17;1756195;80;21625;-78
2021/01/04 11:26:10;;;;;;;177.50;63.90;;;;;;;1.25;92.88;100606.61;1756304;81;21183;-78
2021/01/04 11:28:36;;;;;;;173.17;68.92;;;;;;;1.25;92.87;100610.55;1724730;83;21179;-78
2021/01/04 11:31:03;;;;;;;164.57;60.75;;;;;;;1.24;92.87;100598.34;1756470;81;21163;-78
2021/01/04 11:33:29;;;;;;;175.97;63.17;;;;;;;1.23;92.88;100599.28;1756535;81;22075;-78
2021/01/04 11:35:55;;;;;;;179.03;61.13;;;;;;;1.22;92.89;100596.78;1724485;83;21597;-78
2021/01/04 11:38:22;;;;;;;158.93;58.30;;;;;;;1.21;92.89;100599.03;1756335;80;21127;-78
2021/01/04 11:40:48;;;;;;;187.12;66.42;;;;;;;1.20;92.87;100589.00;1724652;83;21180;-78
2021/01/04 11:43:14;;;;;;;172.40;64.97;;;;;;;1.20;92.86;100579.80;1756553;81;21091;-78
2021/01/04 11:45:41;;;;;;;177.60;60.85;;;;;;;1.21;92.85;100580.18;1756359;81;21201;-78
2021/01/04 11:48:08;;;;;;;163.95;59.40;;;;;;;1.24;92.87;100577.34;1724780;83;21160;-78
2021/01/04 11:50:35;;;;;;;169.62;59.48;;;;;;;1.27;92.88;100578.44;1756753;81;21501;-73
2021/01/04 11:53:02;;;;;;;161.20;59.60;;;;;;;1.28;92.89;100570.08;1694457;83;21119;-78
2021/01/04 11:55:28;;;;;;;166.07;62.95;;;;;;;1.31;92.90;100573.80;1707367;82;21255;-78
2021/01/04 11:57:54;;;;;;;159.35;55.80;;;;;;;1.32;92.89;100568.45;1772307;80;21198;-77
2021/01/04 12:00:21;;;;;;;173.05;60.48;;;;;;;1.36;92.90;100571.24;1709237;83;21139;-77
2021/01/04 12:02:48;;;;;;;164.28;61.73;;;;;;;1.34;92.89;100568.33;1724265;81;21172;-77
2021/01/04 12:05:15;;;;;;;159.20;57.67;;;;;;;1.37;92.90;100567.64;1719582;82;21183;-77
2021/01/04 12:07:42;;;;;;;159.97;53.78;;;;;;;1.41;92.90;100565.17;1720934;82;21171;-77
2021/01/04 12:10:10;;;;;;;168.00;63.08;;;;;;;1.41;92.92;100563.86;1719102;82;21243;-78